sensor_id;sensor_type;location;lat;lon;timestamp;P1;durP1;ratioP1;P2;durP2;ratioP2
26277;SDS011;14000;52.056;8.510;2022-08-05T00:01:40;11.33;;;4.07;;
26277;SDS011;14000;52.056;8.510;2022-08-05T00:04:06;11.57;;;3.90;;
26277;SDS011;14000;52.056;8.510;2022-08-05T00:06:31;10.17;;;3.27;;
26277;SDS011;14000;52.056;8.510;2022-08-05T00:08:57;13.40;;;3.57;;
26277;SDS011;14000;52.056;8.510;2022-08-05T00:11:24;12.20;;;4.00;;
26277;SDS011;14000;52.056;8.510;2022-08-05T00:13:50;10.97;;;3.93;;
26277;SDS011;14000;52.056;8.510;2022-08-05T00:16:15;15.57;;;4.20;;
26277;SDS011;14000;52.056;8.510;2022-08-05T00:18:45;14.00;;;4.57;;
26277;SDS011;14000;52.056;8.510;2022-08-05T00:21:12;14.73;;;4.13;;
26277;SDS011;14000;52.056;8.510;2022-08-05T00:23:40;13.40;;;3.97;;
26277;SDS011;14000;52.056;8.510;2022-08-05T00:26:06;17.40;;;4.60;;
26277;SDS011;14000;52.056;8.510;2022-08-05T00:28:33;14.20;;;4.27;;
26277;SDS011;14000;52.056;8.510;2022-08-05T00:30:59;16.47;;;4.20;;
26277;SDS011;14000;52.056;8.510;2022-08-05T00:33:25;12.73;;;3.90;;
26277;SDS011;14000;52.056;8.510;2022-08-05T00:35:50;11.13;;;3.40;;
26277;SDS011;14000;52.056;8.510;2022-08-05T00:38:16;10.27;;;3.80;;
26277;SDS011;14000;52.056;8.510;2022-08-05T00:40:46;15.40;;;4.13;;
26277;SDS011;14000;52.056;8.510;2022-08-05T00:43:13;14.57;;;4.27;;
26277;SDS011;14000;52.056;8.510;2022-08-05T00:45:39;14.43;;;4.03;;
26277;SDS011;14000;52.056;8.510;2022-08-05T00:48:05;12.83;;;3.40;;
26277;SDS011;14000;52.056;8.510;2022-08-05T00:50:51;10.83;;;3.10;;
26277;SDS011;14000;52.056;8.510;2022-08-05T00:53:21;12.47;;;3.87;;
26277;SDS011;14000;52.056;8.510;2022-08-05T00:55:48;12.10;;;3.60;;
26277;SDS011;14000;52.056;8.510;2022-08-05T00:58:14;15.73;;;3.77;;
26277;SDS011;14000;52.056;8.510;2022-08-05T01:00:41;18.03;;;4.97;;
26277;SDS011;14000;52.056;8.510;2022-08-05T01:03:07;16.50;;;4.87;;
26277;SDS011;14000;52.056;8.510;2022-08-05T01:05:32;15.80;;;5.70;;
26277;SDS011;14000;52.056;8.510;2022-08-05T01:07:58;19.40;;;5.57;;
26277;SDS011;14000;52.056;8.510;2022-08-05T01:10:34;16.30;;;5.63;;
26277;SDS011;14000;52.056;8.510;2022-08-05T01:13:40;19.90;;;6.30;;
26277;SDS011;14000;52.056;8.510;2022-08-05T01:16:20;18.07;;;6.53;;
26277;SDS011;14000;52.056;8.510;2022-08-05T01:19:00;16.00;;;5.80;;
26277;SDS011;14000;52.056;8.510;2022-08-05T01:29:52;15.93;;;7.07;;
26277;SDS011;14000;52.056;8.510;2022-08-05T01:32:22;15.07;;;6.40;;
26277;SDS011;14000;52.056;8.510;2022-08-05T01:34:56;15.80;;;6.87;;
26277;SDS011;14000;52.056;8.510;2022-08-05T01:40:13;15.93;;;7.33;;
26277;SDS011;14000;52.056;8.510;2022-08-05T01:42:42;20.23;;;8.17;;
26277;SDS011;14000;52.056;8.510;2022-08-05T01:45:10;20.87;;;7.70;;
26277;SDS011;14000;52.056;8.510;2022-08-05T01:47:38;19.17;;;7.40;;
26277;SDS011;14000;52.056;8.510;2022-08-05T01:50:06;17.33;;;7.23;;
26277;SDS011;14000;52.056;8.510;2022-08-05T01:52:40;21.10;;;8.60;;
26277;SDS011;14000;52.056;8.510;2022-08-05T01:55:08;18.60;;;8.63;;
26277;SDS011;14000;52.056;8.510;2022-08-05T01:57:40;19.33;;;7.90;;
26277;SDS011;14000;52.056;8.510;2022-08-05T02:00:09;20.57;;;8.60;;
26277;SDS011;14000;52.056;8.510;2022-08-05T02:02:35;20.53;;;8.37;;
26277;SDS011;14000;52.056;8.510;2022-08-05T02:05:16;20.10;;;8.50;;
26277;SDS011;14000;52.056;8.510;2022-08-05T02:07:44;18.13;;;7.07;;
26277;SDS011;14000;52.056;8.510;2022-08-05T02:10:11;18.83;;;7.87;;
26277;SDS011;14000;52.056;8.510;2022-08-05T02:15:44;18.23;;;7.43;;
26277;SDS011;14000;52.056;8.510;2022-08-05T02:21:00;15.40;;;7.83;;
26277;SDS011;14000;52.056;8.510;2022-08-05T02:23:35;20.20;;;9.00;;
26277;SDS011;14000;52.056;8.510;2022-08-05T02:26:04;23.70;;;9.03;;
26277;SDS011;14000;52.056;8.510;2022-08-05T02:28:32;21.87;;;9.97;;
26277;SDS011;14000;52.056;8.510;2022-08-05T02:31:04;21.40;;;9.60;;
26277;SDS011;14000;52.056;8.510;2022-08-05T02:33:36;17.90;;;8.73;;
26277;SDS011;14000;52.056;8.510;2022-08-05T02:36:09;22.67;;;9.53;;
26277;SDS011;14000;52.056;8.510;2022-08-05T02:38:37;24.80;;;11.03;;
26277;SDS011;14000;52.056;8.510;2022-08-05T02:41:06;22.33;;;10.67;;
26277;SDS011;14000;52.056;8.510;2022-08-05T02:43:33;23.47;;;9.80;;
26277;SDS011;14000;52.056;8.510;2022-08-05T02:46:03;22.83;;;11.30;;
26277;SDS011;14000;52.056;8.510;2022-08-05T02:48:30;22.33;;;12.00;;
26277;SDS011;14000;52.056;8.510;2022-08-05T02:50:59;21.00;;;11.33;;
26277;SDS011;14000;52.056;8.510;2022-08-05T02:53:27;26.97;;;12.03;;
26277;SDS011;14000;52.056;8.510;2022-08-05T02:55:54;25.77;;;13.17;;
26277;SDS011;14000;52.056;8.510;2022-08-05T02:58:20;27.90;;;12.70;;
26277;SDS011;14000;52.056;8.510;2022-08-05T03:00:48;24.90;;;12.97;;
26277;SDS011;14000;52.056;8.510;2022-08-05T03:03:15;28.07;;;13.60;;
26277;SDS011;14000;52.056;8.510;2022-08-05T03:05:44;27.70;;;12.87;;
26277;SDS011;14000;52.056;8.510;2022-08-05T03:08:11;31.27;;;14.53;;
26277;SDS011;14000;52.056;8.510;2022-08-05T03:10:41;25.90;;;14.73;;
26277;SDS011;14000;52.056;8.510;2022-08-05T03:13:13;26.07;;;14.00;;
26277;SDS011;14000;52.056;8.510;2022-08-05T03:15:40;27.93;;;15.17;;
26277;SDS011;14000;52.056;8.510;2022-08-05T03:18:07;24.67;;;13.67;;
26277;SDS011;14000;52.056;8.510;2022-08-05T03:20:33;25.90;;;14.30;;
26277;SDS011;14000;52.056;8.510;2022-08-05T03:22:58;26.37;;;13.53;;
26277;SDS011;14000;52.056;8.510;2022-08-05T03:25:25;29.57;;;15.87;;
26277;SDS011;14000;52.056;8.510;2022-08-05T03:27:51;28.53;;;15.30;;
26277;SDS011;14000;52.056;8.510;2022-08-05T03:30:19;28.57;;;14.63;;
26277;SDS011;14000;52.056;8.510;2022-08-05T03:32:46;25.13;;;13.37;;
26277;SDS011;14000;52.056;8.510;2022-08-05T03:35:12;30.07;;;14.90;;
26277;SDS011;14000;52.056;8.510;2022-08-05T03:37:39;27.00;;;14.70;;
26277;SDS011;14000;52.056;8.510;2022-08-05T03:40:05;30.77;;;14.70;;
26277;SDS011;14000;52.056;8.510;2022-08-05T03:42:32;32.20;;;16.30;;
26277;SDS011;14000;52.056;8.510;2022-08-05T03:44:59;30.53;;;16.93;;
26277;SDS011;14000;52.056;8.510;2022-08-05T03:47:25;32.57;;;17.07;;
26277;SDS011;14000;52.056;8.510;2022-08-05T03:49:51;33.80;;;17.63;;
26277;SDS011;14000;52.056;8.510;2022-08-05T03:52:27;29.23;;;15.40;;
26277;SDS011;14000;52.056;8.510;2022-08-05T03:55:04;33.30;;;17.30;;
26277;SDS011;14000;52.056;8.510;2022-08-05T03:57:35;32.87;;;18.67;;
26277;SDS011;14000;52.056;8.510;2022-08-05T04:02:30;34.27;;;17.70;;
26277;SDS011;14000;52.056;8.510;2022-08-05T04:04:59;37.00;;;19.03;;
26277;SDS011;14000;52.056;8.510;2022-08-05T04:07:27;39.10;;;20.57;;
26277;SDS011;14000;52.056;8.510;2022-08-05T04:09:53;38.07;;;21.23;;
26277;SDS011;14000;52.056;8.510;2022-08-05T04:12:19;32.60;;;19.27;;
26277;SDS011;14000;52.056;8.510;2022-08-05T04:14:46;33.50;;;17.63;;
26277;SDS011;14000;52.056;8.510;2022-08-05T04:17:11;35.77;;;19.37;;
26277;SDS011;14000;52.056;8.510;2022-08-05T04:19:41;31.00;;;17.77;;
26277;SDS011;14000;52.056;8.510;2022-08-05T04:22:11;35.40;;;19.80;;
26277;SDS011;14000;52.056;8.510;2022-08-05T04:24:40;41.80;;;22.30;;
26277;SDS011;14000;52.056;8.510;2022-08-05T04:27:08;40.03;;;21.33;;
26277;SDS011;14000;52.056;8.510;2022-08-05T04:29:33;39.37;;;22.00;;
26277;SDS011;14000;52.056;8.510;2022-08-05T04:31:59;44.50;;;24.63;;
26277;SDS011;14000;52.056;8.510;2022-08-05T04:34:25;44.57;;;24.03;;
26277;SDS011;14000;52.056;8.510;2022-08-05T04:36:50;45.00;;;24.03;;
26277;SDS011;14000;52.056;8.510;2022-08-05T04:39:16;39.53;;;20.50;;
26277;SDS011;14000;52.056;8.510;2022-08-05T04:41:43;38.53;;;21.97;;
26277;SDS011;14000;52.056;8.510;2022-08-05T04:44:09;48.23;;;25.20;;
26277;SDS011;14000;52.056;8.510;2022-08-05T04:46:34;44.43;;;24.00;;
26277;SDS011;14000;52.056;8.510;2022-08-05T04:49:00;56.80;;;29.30;;
26277;SDS011;14000;52.056;8.510;2022-08-05T04:51:26;61.50;;;31.40;;
26277;SDS011;14000;52.056;8.510;2022-08-05T04:53:51;61.10;;;30.97;;
26277;SDS011;14000;52.056;8.510;2022-08-05T04:56:17;57.47;;;30.80;;
26277;SDS011;14000;52.056;8.510;2022-08-05T04:58:42;61.07;;;31.60;;
26277;SDS011;14000;52.056;8.510;2022-08-05T05:01:08;59.70;;;30.33;;
26277;SDS011;14000;52.056;8.510;2022-08-05T05:03:34;73.63;;;34.27;;
26277;SDS011;14000;52.056;8.510;2022-08-05T05:05:59;56.87;;;31.57;;
26277;SDS011;14000;52.056;8.510;2022-08-05T05:08:25;75.20;;;34.60;;
26277;SDS011;14000;52.056;8.510;2022-08-05T05:10:50;67.07;;;34.60;;
26277;SDS011;14000;52.056;8.510;2022-08-05T05:13:16;65.70;;;34.37;;
26277;SDS011;14000;52.056;8.510;2022-08-05T05:15:43;76.37;;;36.50;;
26277;SDS011;14000;52.056;8.510;2022-08-05T05:18:13;84.00;;;37.03;;
26277;SDS011;14000;52.056;8.510;2022-08-05T05:20:44;74.40;;;37.00;;
26277;SDS011;14000;52.056;8.510;2022-08-05T05:23:10;88.13;;;39.17;;
26277;SDS011;14000;52.056;8.510;2022-08-05T05:25:37;74.80;;;37.43;;
26277;SDS011;14000;52.056;8.510;2022-08-05T05:28:05;74.27;;;36.87;;
26277;SDS011;14000;52.056;8.510;2022-08-05T05:30:30;73.83;;;36.80;;
26277;SDS011;14000;52.056;8.510;2022-08-05T05:32:57;78.93;;;38.10;;
26277;SDS011;14000;52.056;8.510;2022-08-05T05:35:23;67.93;;;36.20;;
26277;SDS011;14000;52.056;8.510;2022-08-05T05:37:49;76.37;;;38.37;;
26277;SDS011;14000;52.056;8.510;2022-08-05T05:40:17;74.27;;;39.27;;
26277;SDS011;14000;52.056;8.510;2022-08-05T05:42:44;84.73;;;41.13;;
26277;SDS011;14000;52.056;8.510;2022-08-05T05:45:13;82.67;;;40.70;;
26277;SDS011;14000;52.056;8.510;2022-08-05T05:47:40;63.50;;;36.83;;
26277;SDS011;14000;52.056;8.510;2022-08-05T05:50:10;66.37;;;35.87;;
26277;SDS011;14000;52.056;8.510;2022-08-05T05:52:37;64.47;;;37.10;;
26277;SDS011;14000;52.056;8.510;2022-08-05T05:55:04;60.40;;;34.87;;
26277;SDS011;14000;52.056;8.510;2022-08-05T05:57:33;50.63;;;31.90;;
26277;SDS011;14000;52.056;8.510;2022-08-05T05:59:59;55.70;;;33.43;;
26277;SDS011;14000;52.056;8.510;2022-08-05T06:02:25;58.83;;;33.67;;
26277;SDS011;14000;52.056;8.510;2022-08-05T06:04:50;52.13;;;32.13;;
26277;SDS011;14000;52.056;8.510;2022-08-05T06:07:16;48.03;;;29.47;;
26277;SDS011;14000;52.056;8.510;2022-08-05T06:09:42;54.87;;;30.37;;
26277;SDS011;14000;52.056;8.510;2022-08-05T06:12:08;60.60;;;33.23;;
26277;SDS011;14000;52.056;8.510;2022-08-05T06:14:34;46.83;;;27.87;;
26277;SDS011;14000;52.056;8.510;2022-08-05T06:16:59;41.60;;;25.20;;
26277;SDS011;14000;52.056;8.510;2022-08-05T06:19:26;42.83;;;22.60;;
26277;SDS011;14000;52.056;8.510;2022-08-05T06:21:51;44.03;;;21.90;;
26277;SDS011;14000;52.056;8.510;2022-08-05T06:24:17;54.47;;;24.73;;
26277;SDS011;14000;52.056;8.510;2022-08-05T06:26:43;47.03;;;25.77;;
26277;SDS011;14000;52.056;8.510;2022-08-05T06:29:09;44.27;;;26.27;;
26277;SDS011;14000;52.056;8.510;2022-08-05T06:31:35;37.57;;;22.10;;
26277;SDS011;14000;52.056;8.510;2022-08-05T06:34:02;44.30;;;24.10;;
26277;SDS011;14000;52.056;8.510;2022-08-05T06:36:28;40.20;;;22.30;;
26277;SDS011;14000;52.056;8.510;2022-08-05T06:38:53;36.83;;;20.90;;
26277;SDS011;14000;52.056;8.510;2022-08-05T06:41:19;34.33;;;21.20;;
26277;SDS011;14000;52.056;8.510;2022-08-05T06:43:45;33.83;;;21.23;;
26277;SDS011;14000;52.056;8.510;2022-08-05T06:46:11;28.83;;;19.63;;
26277;SDS011;14000;52.056;8.510;2022-08-05T06:48:37;31.27;;;20.07;;
26277;SDS011;14000;52.056;8.510;2022-08-05T06:51:03;38.40;;;20.10;;
26277;SDS011;14000;52.056;8.510;2022-08-05T06:53:29;32.93;;;18.57;;
26277;SDS011;14000;52.056;8.510;2022-08-05T06:55:58;33.00;;;19.60;;
26277;SDS011;14000;52.056;8.510;2022-08-05T06:58:28;31.40;;;17.67;;
26277;SDS011;14000;52.056;8.510;2022-08-05T07:00:56;30.93;;;19.20;;
26277;SDS011;14000;52.056;8.510;2022-08-05T07:03:23;31.63;;;17.33;;
26277;SDS011;14000;52.056;8.510;2022-08-05T07:05:49;34.10;;;17.90;;
26277;SDS011;14000;52.056;8.510;2022-08-05T07:08:15;28.40;;;18.47;;
26277;SDS011;14000;52.056;8.510;2022-08-05T07:10:40;31.73;;;18.33;;
26277;SDS011;14000;52.056;8.510;2022-08-05T07:13:06;28.73;;;18.30;;
26277;SDS011;14000;52.056;8.510;2022-08-05T07:15:50;27.73;;;18.57;;
26277;SDS011;14000;52.056;8.510;2022-08-05T07:18:34;30.73;;;18.63;;
26277;SDS011;14000;52.056;8.510;2022-08-05T07:20:59;35.27;;;18.30;;
26277;SDS011;14000;52.056;8.510;2022-08-05T07:23:25;30.93;;;18.73;;
26277;SDS011;14000;52.056;8.510;2022-08-05T07:25:51;28.73;;;18.23;;
26277;SDS011;14000;52.056;8.510;2022-08-05T07:28:16;29.37;;;17.83;;
26277;SDS011;14000;52.056;8.510;2022-08-05T07:30:42;28.47;;;18.70;;
26277;SDS011;14000;52.056;8.510;2022-08-05T07:33:09;30.57;;;20.03;;
26277;SDS011;14000;52.056;8.510;2022-08-05T07:35:36;34.50;;;20.60;;
26277;SDS011;14000;52.056;8.510;2022-08-05T07:38:03;31.73;;;21.93;;
26277;SDS011;14000;52.056;8.510;2022-08-05T07:40:29;32.40;;;22.87;;
26277;SDS011;14000;52.056;8.510;2022-08-05T07:42:54;35.50;;;23.67;;
26277;SDS011;14000;52.056;8.510;2022-08-05T07:45:20;33.43;;;23.80;;
26277;SDS011;14000;52.056;8.510;2022-08-05T07:47:46;35.33;;;23.40;;
26277;SDS011;14000;52.056;8.510;2022-08-05T07:50:11;35.80;;;23.27;;
26277;SDS011;14000;52.056;8.510;2022-08-05T07:52:37;37.90;;;24.47;;
26277;SDS011;14000;52.056;8.510;2022-08-05T07:55:07;35.47;;;23.37;;
26277;SDS011;14000;52.056;8.510;2022-08-05T07:57:33;32.60;;;22.93;;
26277;SDS011;14000;52.056;8.510;2022-08-05T07:59:59;31.40;;;21.83;;
26277;SDS011;14000;52.056;8.510;2022-08-05T08:02:26;27.53;;;21.10;;
26277;SDS011;14000;52.056;8.510;2022-08-05T08:04:52;30.43;;;22.50;;
26277;SDS011;14000;52.056;8.510;2022-08-05T08:07:19;35.47;;;22.17;;
26277;SDS011;14000;52.056;8.510;2022-08-05T08:09:45;26.47;;;16.97;;
26277;SDS011;14000;52.056;8.510;2022-08-05T08:12:11;31.43;;;18.07;;
26277;SDS011;14000;52.056;8.510;2022-08-05T08:14:40;29.93;;;17.53;;
26277;SDS011;14000;52.056;8.510;2022-08-05T08:17:06;23.70;;;16.07;;
26277;SDS011;14000;52.056;8.510;2022-08-05T08:19:43;26.30;;;17.00;;
26277;SDS011;14000;52.056;8.510;2022-08-05T08:22:09;26.63;;;17.40;;
26277;SDS011;14000;52.056;8.510;2022-08-05T08:24:35;31.47;;;19.93;;
26277;SDS011;14000;52.056;8.510;2022-08-05T08:27:02;31.93;;;20.17;;
26277;SDS011;14000;52.056;8.510;2022-08-05T08:29:28;31.37;;;22.73;;
26277;SDS011;14000;52.056;8.510;2022-08-05T08:31:54;39.53;;;26.33;;
26277;SDS011;14000;52.056;8.510;2022-08-05T08:34:21;31.00;;;22.57;;
26277;SDS011;14000;52.056;8.510;2022-08-05T08:36:48;41.07;;;25.20;;
26277;SDS011;14000;52.056;8.510;2022-08-05T08:39:14;32.60;;;23.77;;
26277;SDS011;14000;52.056;8.510;2022-08-05T08:41:42;32.97;;;21.97;;
26277;SDS011;14000;52.056;8.510;2022-08-05T08:44:08;33.83;;;19.47;;
26277;SDS011;14000;52.056;8.510;2022-08-05T08:46:44;27.97;;;16.97;;
26277;SDS011;14000;52.056;8.510;2022-08-05T08:49:15;23.63;;;14.40;;
26277;SDS011;14000;52.056;8.510;2022-08-05T08:51:48;19.93;;;13.10;;
26277;SDS011;14000;52.056;8.510;2022-08-05T08:54:18;27.70;;;12.30;;
26277;SDS011;14000;52.056;8.510;2022-08-05T08:56:44;25.50;;;12.70;;
26277;SDS011;14000;52.056;8.510;2022-08-05T08:59:10;25.93;;;14.27;;
26277;SDS011;14000;52.056;8.510;2022-08-05T09:01:36;34.20;;;17.97;;
26277;SDS011;14000;52.056;8.510;2022-08-05T09:04:02;31.03;;;16.53;;
26277;SDS011;14000;52.056;8.510;2022-08-05T09:06:30;42.93;;;20.67;;
26277;SDS011;14000;52.056;8.510;2022-08-05T09:08:59;30.10;;;17.67;;
26277;SDS011;14000;52.056;8.510;2022-08-05T09:11:26;34.60;;;20.17;;
26277;SDS011;14000;52.056;8.510;2022-08-05T09:13:52;26.13;;;16.83;;
26277;SDS011;14000;52.056;8.510;2022-08-05T09:16:19;41.07;;;18.03;;
26277;SDS011;14000;52.056;8.510;2022-08-05T09:18:44;28.83;;;17.37;;
26277;SDS011;14000;52.056;8.510;2022-08-05T09:21:10;37.27;;;22.13;;
26277;SDS011;14000;52.056;8.510;2022-08-05T09:23:36;35.43;;;22.93;;
26277;SDS011;14000;52.056;8.510;2022-08-05T09:26:08;38.00;;;21.43;;
26277;SDS011;14000;52.056;8.510;2022-08-05T09:28:36;45.33;;;26.50;;
26277;SDS011;14000;52.056;8.510;2022-08-05T09:33:45;32.50;;;20.40;;
26277;SDS011;14000;52.056;8.510;2022-08-05T09:36:19;44.13;;;25.93;;
26277;SDS011;14000;52.056;8.510;2022-08-05T09:38:59;34.70;;;21.63;;
26277;SDS011;14000;52.056;8.510;2022-08-05T09:41:27;39.47;;;26.00;;
26277;SDS011;14000;52.056;8.510;2022-08-05T09:43:52;36.50;;;23.20;;
26277;SDS011;14000;52.056;8.510;2022-08-05T09:46:22;43.33;;;26.00;;
26277;SDS011;14000;52.056;8.510;2022-08-05T09:48:58;43.70;;;25.70;;
26277;SDS011;14000;52.056;8.510;2022-08-05T09:51:35;47.80;;;27.27;;
26277;SDS011;14000;52.056;8.510;2022-08-05T09:54:02;52.93;;;29.63;;
26277;SDS011;14000;52.056;8.510;2022-08-05T09:56:33;42.47;;;26.07;;
26277;SDS011;14000;52.056;8.510;2022-08-05T10:01:29;37.90;;;22.07;;
26277;SDS011;14000;52.056;8.510;2022-08-05T10:04:04;36.03;;;21.00;;
26277;SDS011;14000;52.056;8.510;2022-08-05T10:06:31;36.53;;;21.07;;
26277;SDS011;14000;52.056;8.510;2022-08-05T10:09:11;29.10;;;18.73;;
26277;SDS011;14000;52.056;8.510;2022-08-05T10:11:39;27.33;;;18.43;;
26277;SDS011;14000;52.056;8.510;2022-08-05T10:16:48;33.17;;;20.07;;
26277;SDS011;14000;52.056;8.510;2022-08-05T10:19:14;29.27;;;17.70;;
26277;SDS011;14000;52.056;8.510;2022-08-05T10:21:40;27.20;;;18.10;;
26277;SDS011;14000;52.056;8.510;2022-08-05T10:24:06;27.60;;;17.13;;
26277;SDS011;14000;52.056;8.510;2022-08-05T10:26:40;21.93;;;15.27;;
26277;SDS011;14000;52.056;8.510;2022-08-05T10:29:07;24.23;;;15.73;;
26277;SDS011;14000;52.056;8.510;2022-08-05T10:31:33;26.30;;;15.97;;
26277;SDS011;14000;52.056;8.510;2022-08-05T10:34:00;29.60;;;17.03;;
26277;SDS011;14000;52.056;8.510;2022-08-05T10:36:25;22.07;;;15.13;;
26277;SDS011;14000;52.056;8.510;2022-08-05T10:38:54;22.20;;;12.80;;
26277;SDS011;14000;52.056;8.510;2022-08-05T10:41:36;25.93;;;15.37;;
26277;SDS011;14000;52.056;8.510;2022-08-05T10:44:11;22.60;;;12.13;;
26277;SDS011;14000;52.056;8.510;2022-08-05T10:49:11;20.07;;;11.30;;
26277;SDS011;14000;52.056;8.510;2022-08-05T10:51:48;18.83;;;10.50;;
26277;SDS011;14000;52.056;8.510;2022-08-05T10:54:15;18.57;;;10.50;;
26277;SDS011;14000;52.056;8.510;2022-08-05T10:59:11;20.53;;;11.23;;
26277;SDS011;14000;52.056;8.510;2022-08-05T11:01:47;17.47;;;10.00;;
26277;SDS011;14000;52.056;8.510;2022-08-05T11:04:14;21.27;;;12.17;;
26277;SDS011;14000;52.056;8.510;2022-08-05T11:09:25;16.80;;;9.87;;
26277;SDS011;14000;52.056;8.510;2022-08-05T11:11:51;17.77;;;9.33;;
26277;SDS011;14000;52.056;8.510;2022-08-05T11:14:22;17.43;;;8.97;;
26277;SDS011;14000;52.056;8.510;2022-08-05T11:19:50;16.13;;;9.50;;
26277;SDS011;14000;52.056;8.510;2022-08-05T11:25:27;16.17;;;9.50;;
26277;SDS011;14000;52.056;8.510;2022-08-05T11:27:53;14.80;;;9.50;;
26277;SDS011;14000;52.056;8.510;2022-08-05T11:30:19;15.90;;;9.47;;
26277;SDS011;14000;52.056;8.510;2022-08-05T11:32:45;16.70;;;9.07;;
26277;SDS011;14000;52.056;8.510;2022-08-05T11:38:13;16.73;;;8.67;;
26277;SDS011;14000;52.056;8.510;2022-08-05T11:40:58;14.43;;;9.30;;
26277;SDS011;14000;52.056;8.510;2022-08-05T11:43:28;14.53;;;8.30;;
26277;SDS011;14000;52.056;8.510;2022-08-05T11:45:55;13.93;;;7.57;;
26277;SDS011;14000;52.056;8.510;2022-08-05T11:48:20;15.67;;;9.00;;
26277;SDS011;14000;52.056;8.510;2022-08-05T11:50:48;15.63;;;8.70;;
26277;SDS011;14000;52.056;8.510;2022-08-05T11:53:14;13.90;;;8.40;;
26277;SDS011;14000;52.056;8.510;2022-08-05T11:55:57;15.90;;;8.73;;
26277;SDS011;14000;52.056;8.510;2022-08-05T11:58:26;15.10;;;9.20;;
26277;SDS011;14000;52.056;8.510;2022-08-05T12:01:04;14.33;;;8.47;;
26277;SDS011;14000;52.056;8.510;2022-08-05T12:03:43;14.53;;;8.87;;
26277;SDS011;14000;52.056;8.510;2022-08-05T12:06:15;15.90;;;8.67;;
26277;SDS011;14000;52.056;8.510;2022-08-05T12:08:47;14.67;;;8.87;;
26277;SDS011;14000;52.056;8.510;2022-08-05T12:11:28;17.77;;;8.87;;
26277;SDS011;14000;52.056;8.510;2022-08-05T12:13:58;13.60;;;9.53;;
26277;SDS011;14000;52.056;8.510;2022-08-05T12:16:32;13.47;;;7.80;;
26277;SDS011;14000;52.056;8.510;2022-08-05T12:18:59;13.87;;;7.93;;
26277;SDS011;14000;52.056;8.510;2022-08-05T12:21:28;12.80;;;6.60;;
26277;SDS011;14000;52.056;8.510;2022-08-05T12:26:33;11.27;;;5.50;;
26277;SDS011;14000;52.056;8.510;2022-08-05T12:29:04;11.90;;;5.47;;
26277;SDS011;14000;52.056;8.510;2022-08-05T12:31:39;11.33;;;6.00;;
26277;SDS011;14000;52.056;8.510;2022-08-05T12:34:08;13.00;;;5.80;;
26277;SDS011;14000;52.056;8.510;2022-08-05T12:36:34;11.73;;;5.67;;
26277;SDS011;14000;52.056;8.510;2022-08-05T12:39:03;13.70;;;5.90;;
26277;SDS011;14000;52.056;8.510;2022-08-05T12:41:33;13.30;;;6.40;;
26277;SDS011;14000;52.056;8.510;2022-08-05T12:44:02;12.33;;;7.10;;
26277;SDS011;14000;52.056;8.510;2022-08-05T12:46:32;13.30;;;5.97;;
26277;SDS011;14000;52.056;8.510;2022-08-05T12:51:45;10.50;;;4.90;;
26277;SDS011;14000;52.056;8.510;2022-08-05T12:54:16;11.43;;;4.00;;
26277;SDS011;14000;52.056;8.510;2022-08-05T12:56:51;9.37;;;3.70;;
26277;SDS011;14000;52.056;8.510;2022-08-05T12:59:22;9.37;;;3.13;;
26277;SDS011;14000;52.056;8.510;2022-08-05T13:02:07;8.60;;;3.00;;
26277;SDS011;14000;52.056;8.510;2022-08-05T13:04:35;10.57;;;3.30;;
26277;SDS011;14000;52.056;8.510;2022-08-05T13:07:09;10.63;;;3.63;;
26277;SDS011;14000;52.056;8.510;2022-08-05T13:09:41;8.80;;;3.60;;
26277;SDS011;14000;52.056;8.510;2022-08-05T13:12:12;9.83;;;3.10;;
26277;SDS011;14000;52.056;8.510;2022-08-05T13:14:43;10.47;;;3.20;;
26277;SDS011;14000;52.056;8.510;2022-08-05T13:22:31;8.90;;;3.10;;
26277;SDS011;14000;52.056;8.510;2022-08-05T13:25:01;10.10;;;3.67;;
26277;SDS011;14000;52.056;8.510;2022-08-05T13:27:36;10.03;;;3.70;;
26277;SDS011;14000;52.056;8.510;2022-08-05T13:30:03;9.43;;;3.13;;
26277;SDS011;14000;52.056;8.510;2022-08-05T13:32:31;9.03;;;3.10;;
26277;SDS011;14000;52.056;8.510;2022-08-05T13:34:57;7.70;;;2.70;;
26277;SDS011;14000;52.056;8.510;2022-08-05T13:37:22;9.67;;;2.50;;
26277;SDS011;14000;52.056;8.510;2022-08-05T13:39:51;9.57;;;2.83;;
26277;SDS011;14000;52.056;8.510;2022-08-05T13:42:18;8.77;;;2.53;;
26277;SDS011;14000;52.056;8.510;2022-08-05T13:44:46;9.00;;;3.13;;
26277;SDS011;14000;52.056;8.510;2022-08-05T13:47:15;9.13;;;3.10;;
26277;SDS011;14000;52.056;8.510;2022-08-05T13:49:41;8.97;;;2.90;;
26277;SDS011;14000;52.056;8.510;2022-08-05T13:52:11;9.60;;;3.00;;
26277;SDS011;14000;52.056;8.510;2022-08-05T13:54:37;8.23;;;3.40;;
26277;SDS011;14000;52.056;8.510;2022-08-05T13:57:03;9.83;;;3.13;;
26277;SDS011;14000;52.056;8.510;2022-08-05T13:59:29;10.97;;;3.40;;
26277;SDS011;14000;52.056;8.510;2022-08-05T14:01:55;7.77;;;3.30;;
26277;SDS011;14000;52.056;8.510;2022-08-05T14:04:22;8.30;;;3.00;;
26277;SDS011;14000;52.056;8.510;2022-08-05T14:07:06;10.77;;;3.33;;
26277;SDS011;14000;52.056;8.510;2022-08-05T14:09:33;9.10;;;3.10;;
26277;SDS011;14000;52.056;8.510;2022-08-05T14:11:59;8.03;;;3.00;;
26277;SDS011;14000;52.056;8.510;2022-08-05T14:14:24;9.33;;;2.80;;
26277;SDS011;14000;52.056;8.510;2022-08-05T14:16:50;8.53;;;2.37;;
26277;SDS011;14000;52.056;8.510;2022-08-05T14:19:16;8.50;;;2.70;;
26277;SDS011;14000;52.056;8.510;2022-08-05T14:21:42;8.93;;;2.47;;
26277;SDS011;14000;52.056;8.510;2022-08-05T14:24:07;14.13;;;2.50;;
26277;SDS011;14000;52.056;8.510;2022-08-05T14:26:35;14.30;;;3.07;;
26277;SDS011;14000;52.056;8.510;2022-08-05T14:29:01;7.33;;;2.30;;
26277;SDS011;14000;52.056;8.510;2022-08-05T14:31:27;9.93;;;2.53;;
26277;SDS011;14000;52.056;8.510;2022-08-05T14:33:53;8.07;;;2.30;;
26277;SDS011;14000;52.056;8.510;2022-08-05T14:36:19;8.17;;;2.03;;
26277;SDS011;14000;52.056;8.510;2022-08-05T14:38:44;6.47;;;2.33;;
26277;SDS011;14000;52.056;8.510;2022-08-05T14:41:10;8.07;;;2.00;;
26277;SDS011;14000;52.056;8.510;2022-08-05T14:43:35;7.13;;;2.17;;
26277;SDS011;14000;52.056;8.510;2022-08-05T14:46:01;8.00;;;1.80;;
26277;SDS011;14000;52.056;8.510;2022-08-05T14:48:27;7.27;;;2.30;;
26277;SDS011;14000;52.056;8.510;2022-08-05T14:50:53;9.20;;;2.00;;
26277;SDS011;14000;52.056;8.510;2022-08-05T14:53:18;11.00;;;3.73;;
26277;SDS011;14000;52.056;8.510;2022-08-05T14:55:44;10.13;;;2.40;;
26277;SDS011;14000;52.056;8.510;2022-08-05T14:58:10;7.60;;;2.07;;
26277;SDS011;14000;52.056;8.510;2022-08-05T15:00:35;8.43;;;2.10;;
26277;SDS011;14000;52.056;8.510;2022-08-05T15:03:02;8.23;;;2.40;;
26277;SDS011;14000;52.056;8.510;2022-08-05T15:05:30;7.27;;;2.27;;
26277;SDS011;14000;52.056;8.510;2022-08-05T15:07:56;10.03;;;2.67;;
26277;SDS011;14000;52.056;8.510;2022-08-05T15:10:21;9.77;;;2.50;;
26277;SDS011;14000;52.056;8.510;2022-08-05T15:12:47;10.10;;;2.33;;
26277;SDS011;14000;52.056;8.510;2022-08-05T15:15:13;6.67;;;2.00;;
26277;SDS011;14000;52.056;8.510;2022-08-05T15:17:39;7.23;;;1.70;;
26277;SDS011;14000;52.056;8.510;2022-08-05T15:20:04;9.53;;;1.90;;
26277;SDS011;14000;52.056;8.510;2022-08-05T15:22:31;9.57;;;2.10;;
26277;SDS011;14000;52.056;8.510;2022-08-05T15:24:57;6.90;;;1.80;;
26277;SDS011;14000;52.056;8.510;2022-08-05T15:27:23;8.33;;;2.00;;
26277;SDS011;14000;52.056;8.510;2022-08-05T15:29:49;5.93;;;1.57;;